sensor_id;sensor_type;location;lat;lon;timestamp;P1;durP1;ratioP1;P2;durP2;ratioP2
4595;SDS011;2310;49.978;8.742;2023-02-28T00:02:59;4.70;;;3.13;;
4595;SDS011;2310;49.978;8.742;2023-02-28T00:07:00;6.23;;;4.10;;
4595;SDS011;2310;49.978;8.742;2023-02-28T00:11:05;4.83;;;3.13;;
4595;SDS011;2310;49.978;8.742;2023-02-28T00:15:09;7.67;;;4.97;;
4595;SDS011;2310;49.978;8.742;2023-02-28T00:19:11;4.20;;;2.37;;
4595;SDS011;2310;49.978;8.742;2023-02-28T00:23:14;4.73;;;2.60;;
4595;SDS011;2310;49.978;8.742;2023-02-28T00:27:15;4.10;;;2.90;;
4595;SDS011;2310;49.978;8.742;2023-02-28T00:31:16;5.80;;;3.87;;
4595;SDS011;2310;49.978;8.742;2023-02-28T00:35:17;4.17;;;3.43;;
4595;SDS011;2310;49.978;8.742;2023-02-28T00:39:19;4.70;;;3.20;;
4595;SDS011;2310;49.978;8.742;2023-02-28T00:43:20;6.17;;;3.60;;
4595;SDS011;2310;49.978;8.742;2023-02-28T00:47:21;7.10;;;4.10;;
4595;SDS011;2310;49.978;8.742;2023-02-28T00:51:23;6.30;;;4.07;;
4595;SDS011;2310;49.978;8.742;2023-02-28T00:55:24;6.40;;;3.80;;
4595;SDS011;2310;49.978;8.742;2023-02-28T00:59:25;7.30;;;4.20;;
4595;SDS011;2310;49.978;8.742;2023-02-28T01:03:26;6.23;;;4.30;;
4595;SDS011;2310;49.978;8.742;2023-02-28T01:07:28;6.03;;;3.60;;
4595;SDS011;2310;49.978;8.742;2023-02-28T01:11:29;6.23;;;4.80;;
4595;SDS011;2310;49.978;8.742;2023-02-28T01:15:31;5.93;;;4.00;;
4595;SDS011;2310;49.978;8.742;2023-02-28T01:19:33;6.70;;;4.47;;
4595;SDS011;2310;49.978;8.742;2023-02-28T01:23:34;6.70;;;5.33;;
4595;SDS011;2310;49.978;8.742;2023-02-28T01:27:36;6.57;;;5.27;;
4595;SDS011;2310;49.978;8.742;2023-02-28T01:31:37;6.13;;;4.63;;
4595;SDS011;2310;49.978;8.742;2023-02-28T01:35:38;6.40;;;4.40;;
4595;SDS011;2310;49.978;8.742;2023-02-28T01:39:39;6.83;;;4.73;;
4595;SDS011;2310;49.978;8.742;2023-02-28T01:47:50;8.33;;;5.30;;
4595;SDS011;2310;49.978;8.742;2023-02-28T01:51:54;6.27;;;4.50;;
4595;SDS011;2310;49.978;8.742;2023-02-28T01:55:57;9.37;;;6.40;;
4595;SDS011;2310;49.978;8.742;2023-02-28T01:59:59;10.80;;;6.90;;
4595;SDS011;2310;49.978;8.742;2023-02-28T02:04:08;8.93;;;6.53;;
4595;SDS011;2310;49.978;8.742;2023-02-28T02:08:10;9.20;;;6.57;;
4595;SDS011;2310;49.978;8.742;2023-02-28T02:12:18;9.30;;;6.63;;
4595;SDS011;2310;49.978;8.742;2023-02-28T02:16:36;6.77;;;5.77;;
4595;SDS011;2310;49.978;8.742;2023-02-28T02:20:46;8.30;;;6.60;;
4595;SDS011;2310;49.978;8.742;2023-02-28T02:38:11;8.23;;;5.77;;
4595;SDS011;2310;49.978;8.742;2023-02-28T02:42:46;7.67;;;5.43;;
4595;SDS011;2310;49.978;8.742;2023-02-28T02:46:47;7.67;;;5.80;;
4595;SDS011;2310;49.978;8.742;2023-02-28T02:50:55;7.10;;;5.57;;
4595;SDS011;2310;49.978;8.742;2023-02-28T02:54:55;5.53;;;4.73;;
4595;SDS011;2310;49.978;8.742;2023-02-28T02:59:01;7.13;;;4.93;;
4595;SDS011;2310;49.978;8.742;2023-02-28T03:03:05;7.33;;;5.43;;
4595;SDS011;2310;49.978;8.742;2023-02-28T03:07:07;8.77;;;5.60;;
4595;SDS011;2310;49.978;8.742;2023-02-28T03:11:12;8.57;;;6.40;;
4595;SDS011;2310;49.978;8.742;2023-02-28T03:15:18;6.93;;;5.40;;
4595;SDS011;2310;49.978;8.742;2023-02-28T03:19:26;8.43;;;6.50;;
4595;SDS011;2310;49.978;8.742;2023-02-28T03:27:55;11.50;;;6.77;;
4595;SDS011;2310;49.978;8.742;2023-02-28T03:32:16;8.07;;;5.83;;
4595;SDS011;2310;49.978;8.742;2023-02-28T03:36:26;8.43;;;6.30;;
4595;SDS011;2310;49.978;8.742;2023-02-28T03:40:30;8.00;;;5.27;;
4595;SDS011;2310;49.978;8.742;2023-02-28T03:44:35;12.23;;;7.90;;
4595;SDS011;2310;49.978;8.742;2023-02-28T03:48:43;17.63;;;11.13;;
4595;SDS011;2310;49.978;8.742;2023-02-28T03:52:53;11.90;;;9.03;;
4595;SDS011;2310;49.978;8.742;2023-02-28T03:57:06;12.23;;;9.60;;
4595;SDS011;2310;49.978;8.742;2023-02-28T04:01:51;18.07;;;12.40;;
4595;SDS011;2310;49.978;8.742;2023-02-28T04:05:20;8.50;;;7.30;;
4595;SDS011;2310;49.978;8.742;2023-02-28T04:09:22;7.80;;;6.53;;
4595;SDS011;2310;49.978;8.742;2023-02-28T04:13:24;7.23;;;6.27;;
4595;SDS011;2310;49.978;8.742;2023-02-28T04:17:25;8.37;;;6.57;;
4595;SDS011;2310;49.978;8.742;2023-02-28T04:21:27;7.10;;;6.30;;
4595;SDS011;2310;49.978;8.742;2023-02-28T04:25:29;7.80;;;6.00;;
4595;SDS011;2310;49.978;8.742;2023-02-28T04:29:31;8.03;;;5.87;;
4595;SDS011;2310;49.978;8.742;2023-02-28T04:33:35;8.07;;;5.90;;
4595;SDS011;2310;49.978;8.742;2023-02-28T04:37:36;7.43;;;6.13;;
4595;SDS011;2310;49.978;8.742;2023-02-28T04:41:37;7.87;;;6.00;;
4595;SDS011;2310;49.978;8.742;2023-02-28T04:45:39;7.87;;;6.07;;
4595;SDS011;2310;49.978;8.742;2023-02-28T04:49:40;10.53;;;6.77;;
4595;SDS011;2310;49.978;8.742;2023-02-28T04:53:42;13.67;;;9.60;;
4595;SDS011;2310;49.978;8.742;2023-02-28T04:57:44;11.97;;;8.20;;
4595;SDS011;2310;49.978;8.742;2023-02-28T05:01:46;8.30;;;6.03;;
4595;SDS011;2310;49.978;8.742;2023-02-28T05:05:48;8.23;;;6.20;;
4595;SDS011;2310;49.978;8.742;2023-02-28T05:09:50;6.80;;;6.07;;
4595;SDS011;2310;49.978;8.742;2023-02-28T05:13:51;9.67;;;6.73;;
4595;SDS011;2310;49.978;8.742;2023-02-28T05:17:53;9.50;;;6.63;;
4595;SDS011;2310;49.978;8.742;2023-02-28T05:21:54;8.63;;;6.47;;
4595;SDS011;2310;49.978;8.742;2023-02-28T05:25:56;8.00;;;6.17;;
4595;SDS011;2310;49.978;8.742;2023-02-28T05:29:57;8.23;;;6.67;;
4595;SDS011;2310;49.978;8.742;2023-02-28T05:33:59;10.03;;;7.47;;
4595;SDS011;2310;49.978;8.742;2023-02-28T05:38:01;10.33;;;7.73;;
4595;SDS011;2310;49.978;8.742;2023-02-28T05:42:02;9.00;;;8.00;;
4595;SDS011;2310;49.978;8.742;2023-02-28T05:46:08;9.20;;;6.93;;
4595;SDS011;2310;49.978;8.742;2023-02-28T05:50:11;7.97;;;6.30;;
4595;SDS011;2310;49.978;8.742;2023-02-28T05:54:12;6.73;;;5.53;;
4595;SDS011;2310;49.978;8.742;2023-02-28T05:58:15;6.40;;;5.47;;
4595;SDS011;2310;49.978;8.742;2023-02-28T06:02:16;7.90;;;6.03;;
4595;SDS011;2310;49.978;8.742;2023-02-28T06:06:18;8.57;;;6.10;;
4595;SDS011;2310;49.978;8.742;2023-02-28T06:10:19;11.93;;;6.80;;
4595;SDS011;2310;49.978;8.742;2023-02-28T06:14:21;8.93;;;6.00;;
4595;SDS011;2310;49.978;8.742;2023-02-28T06:18:22;11.10;;;6.70;;
4595;SDS011;2310;49.978;8.742;2023-02-28T06:22:23;7.37;;;6.57;;
4595;SDS011;2310;49.978;8.742;2023-02-28T06:26:25;7.70;;;5.60;;
4595;SDS011;2310;49.978;8.742;2023-02-28T06:30:27;7.70;;;5.23;;
4595;SDS011;2310;49.978;8.742;2023-02-28T06:34:30;7.10;;;5.50;;
4595;SDS011;2310;49.978;8.742;2023-02-28T06:38:32;6.70;;;4.80;;
4595;SDS011;2310;49.978;8.742;2023-02-28T06:42:34;5.10;;;4.33;;
4595;SDS011;2310;49.978;8.742;2023-02-28T06:46:35;6.60;;;5.00;;
4595;SDS011;2310;49.978;8.742;2023-02-28T06:50:36;7.37;;;5.60;;
4595;SDS011;2310;49.978;8.742;2023-02-28T06:54:38;5.47;;;4.13;;
4595;SDS011;2310;49.978;8.742;2023-02-28T06:58:39;7.10;;;5.10;;
4595;SDS011;2310;49.978;8.742;2023-02-28T07:02:41;8.10;;;6.40;;
4595;SDS011;2310;49.978;8.742;2023-02-28T07:06:42;6.60;;;4.90;;
4595;SDS011;2310;49.978;8.742;2023-02-28T07:10:44;6.60;;;5.30;;
4595;SDS011;2310;49.978;8.742;2023-02-28T07:14:45;8.83;;;6.20;;
4595;SDS011;2310;49.978;8.742;2023-02-28T07:18:46;7.23;;;5.43;;
4595;SDS011;2310;49.978;8.742;2023-02-28T07:22:48;8.00;;;4.67;;
4595;SDS011;2310;49.978;8.742;2023-02-28T07:26:51;9.60;;;5.70;;
4595;SDS011;2310;49.978;8.742;2023-02-28T07:30:53;8.70;;;6.13;;
4595;SDS011;2310;49.978;8.742;2023-02-28T07:34:54;6.40;;;4.13;;
4595;SDS011;2310;49.978;8.742;2023-02-28T07:38:55;6.37;;;4.70;;
4595;SDS011;2310;49.978;8.742;2023-02-28T07:42:59;6.70;;;4.23;;
4595;SDS011;2310;49.978;8.742;2023-02-28T07:47:01;7.60;;;4.80;;
4595;SDS011;2310;49.978;8.742;2023-02-28T07:51:02;5.47;;;4.70;;
4595;SDS011;2310;49.978;8.742;2023-02-28T07:55:04;10.63;;;7.67;;
4595;SDS011;2310;49.978;8.742;2023-02-28T07:59:07;7.63;;;5.37;;
4595;SDS011;2310;49.978;8.742;2023-02-28T08:03:10;6.43;;;4.57;;
4595;SDS011;2310;49.978;8.742;2023-02-28T08:07:14;6.40;;;4.37;;
4595;SDS011;2310;49.978;8.742;2023-02-28T08:11:17;6.97;;;4.73;;
4595;SDS011;2310;49.978;8.742;2023-02-28T08:15:18;5.13;;;4.00;;
4595;SDS011;2310;49.978;8.742;2023-02-28T08:19:19;6.60;;;4.30;;
4595;SDS011;2310;49.978;8.742;2023-02-28T08:23:21;8.00;;;5.43;;
4595;SDS011;2310;49.978;8.742;2023-02-28T08:27:22;6.13;;;4.40;;
4595;SDS011;2310;49.978;8.742;2023-02-28T08:31:23;7.00;;;4.20;;
4595;SDS011;2310;49.978;8.742;2023-02-28T08:35:24;9.00;;;5.50;;
4595;SDS011;2310;49.978;8.742;2023-02-28T08:39:26;6.17;;;4.60;;
4595;SDS011;2310;49.978;8.742;2023-02-28T08:43:27;5.47;;;4.30;;
4595;SDS011;2310;49.978;8.742;2023-02-28T08:47:29;6.70;;;4.93;;
4595;SDS011;2310;49.978;8.742;2023-02-28T08:51:30;8.03;;;5.47;;
4595;SDS011;2310;49.978;8.742;2023-02-28T08:55:32;6.33;;;4.53;;
4595;SDS011;2310;49.978;8.742;2023-02-28T08:59:34;8.20;;;4.43;;
4595;SDS011;2310;49.978;8.742;2023-02-28T09:03:35;6.60;;;5.00;;
4595;SDS011;2310;49.978;8.742;2023-02-28T09:07:37;6.27;;;4.80;;
4595;SDS011;2310;49.978;8.742;2023-02-28T09:11:38;5.33;;;4.83;;
4595;SDS011;2310;49.978;8.742;2023-02-28T09:15:39;8.07;;;5.80;;
4595;SDS011;2310;49.978;8.742;2023-02-28T09:19:40;7.17;;;5.60;;
4595;SDS011;2310;49.978;8.742;2023-02-28T09:23:46;9.10;;;6.63;;
4595;SDS011;2310;49.978;8.742;2023-02-28T09:27:46;7.30;;;4.73;;
4595;SDS011;2310;49.978;8.742;2023-02-28T09:31:47;5.90;;;5.17;;
4595;SDS011;2310;49.978;8.742;2023-02-28T09:35:48;9.40;;;6.30;;
4595;SDS011;2310;49.978;8.742;2023-02-28T09:39:50;7.33;;;5.83;;
4595;SDS011;2310;49.978;8.742;2023-02-28T09:43:53;12.40;;;5.77;;
4595;SDS011;2310;49.978;8.742;2023-02-28T09:47:58;7.60;;;5.50;;
4595;SDS011;2310;49.978;8.742;2023-02-28T09:52:10;7.60;;;6.47;;
4595;SDS011;2310;49.978;8.742;2023-02-28T09:56:28;7.90;;;6.00;;
4595;SDS011;2310;49.978;8.742;2023-02-28T10:09:01;7.93;;;5.57;;
4595;SDS011;2310;49.978;8.742;2023-02-28T10:13:06;7.23;;;5.73;;
4595;SDS011;2310;49.978;8.742;2023-02-28T10:17:23;8.87;;;5.70;;
4595;SDS011;2310;49.978;8.742;2023-02-28T10:21:28;8.53;;;5.97;;
4595;SDS011;2310;49.978;8.742;2023-02-28T10:25:32;8.67;;;5.43;;
4595;SDS011;2310;49.978;8.742;2023-02-28T10:29:33;6.27;;;5.40;;
4595;SDS011;2310;49.978;8.742;2023-02-28T10:33:35;7.13;;;5.33;;
4595;SDS011;2310;49.978;8.742;2023-02-28T10:37:40;8.67;;;5.73;;
4595;SDS011;2310;49.978;8.742;2023-02-28T10:41:43;10.43;;;6.57;;
4595;SDS011;2310;49.978;8.742;2023-02-28T10:45:55;7.30;;;5.90;;
4595;SDS011;2310;49.978;8.742;2023-02-28T10:49:58;11.93;;;5.90;;
4595;SDS011;2310;49.978;8.742;2023-02-28T10:53:59;7.87;;;5.70;;
4595;SDS011;2310;49.978;8.742;2023-02-28T10:58:02;8.03;;;6.03;;
4595;SDS011;2310;49.978;8.742;2023-02-28T11:06:32;8.60;;;6.30;;
4595;SDS011;2310;49.978;8.742;2023-02-28T11:10:35;7.50;;;5.87;;
4595;SDS011;2310;49.978;8.742;2023-02-28T11:14:40;10.20;;;6.30;;
4595;SDS011;2310;49.978;8.742;2023-02-28T11:18:43;8.73;;;6.83;;
4595;SDS011;2310;49.978;8.742;2023-02-28T11:22:47;7.13;;;6.23;;
4595;SDS011;2310;49.978;8.742;2023-02-28T11:26:48;9.87;;;7.20;;
4595;SDS011;2310;49.978;8.742;2023-02-28T11:31:05;8.60;;;7.60;;
4595;SDS011;2310;49.978;8.742;2023-02-28T11:39:23;9.27;;;7.20;;
4595;SDS011;2310;49.978;8.742;2023-02-28T11:48:08;8.20;;;6.90;;
4595;SDS011;2310;49.978;8.742;2023-02-28T11:52:20;8.07;;;6.40;;
4595;SDS011;2310;49.978;8.742;2023-02-28T12:27:03;11.83;;;7.80;;
4595;SDS011;2310;49.978;8.742;2023-02-28T12:31:14;7.90;;;7.10;;
4595;SDS011;2310;49.978;8.742;2023-02-28T12:35:17;8.33;;;7.20;;
4595;SDS011;2310;49.978;8.742;2023-02-28T12:39:23;11.23;;;7.20;;
4595;SDS011;2310;49.978;8.742;2023-02-28T12:43:27;9.70;;;7.20;;
4595;SDS011;2310;49.978;8.742;2023-02-28T12:47:34;8.53;;;7.47;;
4595;SDS011;2310;49.978;8.742;2023-02-28T12:51:35;9.93;;;7.73;;
4595;SDS011;2310;49.978;8.742;2023-02-28T13:00:08;9.70;;;7.00;;
4595;SDS011;2310;49.978;8.742;2023-02-28T13:08:33;10.40;;;7.77;;
4595;SDS011;2310;49.978;8.742;2023-02-28T13:12:53;8.70;;;6.80;;
4595;SDS011;2310;49.978;8.742;2023-02-28T13:17:03;10.07;;;7.47;;
4595;SDS011;2310;49.978;8.742;2023-02-28T13:21:26;10.23;;;8.93;;
4595;SDS011;2310;49.978;8.742;2023-02-28T13:29:41;9.87;;;7.20;;
4595;SDS011;2310;49.978;8.742;2023-02-28T13:38:09;10.17;;;7.93;;
4595;SDS011;2310;49.978;8.742;2023-02-28T13:50:52;10.63;;;7.63;;
4595;SDS011;2310;49.978;8.742;2023-02-28T13:55:03;9.67;;;7.40;;
4595;SDS011;2310;49.978;8.742;2023-02-28T14:07:59;8.90;;;7.43;;
4595;SDS011;2310;49.978;8.742;2023-02-28T14:16:45;10.20;;;8.10;;
4595;SDS011;2310;49.978;8.742;2023-02-28T14:20:48;9.37;;;7.40;;
4595;SDS011;2310;49.978;8.742;2023-02-28T14:38:17;13.77;;;10.43;;
4595;SDS011;2310;49.978;8.742;2023-02-28T14:42:35;8.17;;;6.97;;
4595;SDS011;2310;49.978;8.742;2023-02-28T14:46:45;10.50;;;8.60;;
4595;SDS011;2310;49.978;8.742;2023-02-28T14:50:53;16.07;;;12.63;;
4595;SDS011;2310;49.978;8.742;2023-02-28T14:55:01;9.87;;;8.87;;
4595;SDS011;2310;49.978;8.742;2023-02-28T14:59:25;11.33;;;7.73;;
4595;SDS011;2310;49.978;8.742;2023-02-28T15:03:35;12.10;;;10.17;;
4595;SDS011;2310;49.978;8.742;2023-02-28T15:07:35;9.83;;;7.37;;
4595;SDS011;2310;49.978;8.742;2023-02-28T15:11:37;10.40;;;8.20;;
4595;SDS011;2310;49.978;8.742;2023-02-28T15:15:41;8.83;;;7.60;;
4595;SDS011;2310;49.978;8.742;2023-02-28T15:19:52;9.60;;;7.40;;
4595;SDS011;2310;49.978;8.742;2023-02-28T15:23:56;15.20;;;11.20;;
4595;SDS011;2310;49.978;8.742;2023-02-28T15:28:00;11.77;;;8.30;;
4595;SDS011;2310;49.978;8.742;2023-02-28T15:32:03;14.00;;;11.27;;
4595;SDS011;2310;49.978;8.742;2023-02-28T15:36:10;12.40;;;8.00;;
4595;SDS011;2310;49.978;8.742;2023-02-28T15:44:39;10.07;;;8.30;;
4595;SDS011;2310;49.978;8.742;2023-02-28T15:48:45;12.90;;;8.40;;
4595;SDS011;2310;49.978;8.742;2023-02-28T15:52:54;11.50;;;7.73;;
4595;SDS011;2310;49.978;8.742;2023-02-28T15:56:56;10.80;;;9.17;;
4595;SDS011;2310;49.978;8.742;2023-02-28T16:01:45;11.50;;;8.80;;
4595;SDS011;2310;49.978;8.742;2023-02-28T16:09:24;8.77;;;7.00;;
4595;SDS011;2310;49.978;8.742;2023-02-28T16:13:25;11.03;;;9.00;;
4595;SDS011;2310;49.978;8.742;2023-02-28T16:17:27;8.57;;;7.67;;
4595;SDS011;2310;49.978;8.742;2023-02-28T16:21:30;12.90;;;9.63;;
4595;SDS011;2310;49.978;8.742;2023-02-28T16:25:40;10.90;;;8.80;;
4595;SDS011;2310;49.978;8.742;2023-02-28T16:29:43;10.60;;;8.63;;
4595;SDS011;2310;49.978;8.742;2023-02-28T16:33:45;11.37;;;8.30;;
4595;SDS011;2310;49.978;8.742;2023-02-28T16:37:48;10.77;;;8.63;;
4595;SDS011;2310;49.978;8.742;2023-02-28T16:41:51;9.93;;;8.90;;
4595;SDS011;2310;49.978;8.742;2023-02-28T16:45:56;11.73;;;9.80;;
4595;SDS011;2310;49.978;8.742;2023-02-28T16:50:00;10.50;;;8.80;;
4595;SDS011;2310;49.978;8.742;2023-02-28T16:54:01;15.20;;;8.23;;
4595;SDS011;2310;49.978;8.742;2023-02-28T16:58:03;14.80;;;10.13;;
4595;SDS011;2310;49.978;8.742;2023-02-28T17:02:08;10.33;;;9.23;;
4595;SDS011;2310;49.978;8.742;2023-02-28T17:06:22;13.07;;;10.33;;
4595;SDS011;2310;49.978;8.742;2023-02-28T17:10:24;15.47;;;9.60;;
4595;SDS011;2310;49.978;8.742;2023-02-28T17:14:26;14.37;;;9.03;;
4595;SDS011;2310;49.978;8.742;2023-02-28T17:18:28;11.60;;;10.07;;
4595;SDS011;2310;49.978;8.742;2023-02-28T17:22:31;13.20;;;10.30;;
4595;SDS011;2310;49.978;8.742;2023-02-28T17:26:32;12.67;;;9.90;;
4595;SDS011;2310;49.978;8.742;2023-02-28T17:30:34;13.70;;;10.87;;
4595;SDS011;2310;49.978;8.742;2023-02-28T17:34:35;18.77;;;13.50;;
4595;SDS011;2310;49.978;8.742;2023-02-28T17:38:38;19.33;;;12.90;;
4595;SDS011;2310;49.978;8.742;2023-02-28T17:42:39;15.90;;;12.23;;
4595;SDS011;2310;49.978;8.742;2023-02-28T17:46:40;20.23;;;15.60;;
4595;SDS011;2310;49.978;8.742;2023-02-28T17:50:43;20.57;;;15.20;;
4595;SDS011;2310;49.978;8.742;2023-02-28T17:54:44;23.20;;;15.47;;
4595;SDS011;2310;49.978;8.742;2023-02-28T17:58:46;21.07;;;14.20;;
4595;SDS011;2310;49.978;8.742;2023-02-28T18:02:47;24.57;;;16.50;;
4595;SDS011;2310;49.978;8.742;2023-02-28T18:06:48;15.47;;;13.00;;
4595;SDS011;2310;49.978;8.742;2023-02-28T18:10:52;15.93;;;11.37;;
4595;SDS011;2310;49.978;8.742;2023-02-28T18:14:54;21.50;;;15.80;;
4595;SDS011;2310;49.978;8.742;2023-02-28T18:18:55;16.70;;;14.83;;
4595;SDS011;2310;49.978;8.742;2023-02-28T18:22:56;18.77;;;14.97;;
4595;SDS011;2310;49.978;8.742;2023-02-28T18:26:58;20.47;;;14.90;;
4595;SDS011;2310;49.978;8.742;2023-02-28T18:31:04;21.77;;;14.80;;
4595;SDS011;2310;49.978;8.742;2023-02-28T18:35:06;15.63;;;13.57;;
4595;SDS011;2310;49.978;8.742;2023-02-28T18:39:08;12.83;;;11.50;;
4595;SDS011;2310;49.978;8.742;2023-02-28T18:43:11;15.07;;;11.57;;
4595;SDS011;2310;49.978;8.742;2023-02-28T18:47:13;12.10;;;10.00;;
4595;SDS011;2310;49.978;8.742;2023-02-28T18:51:16;13.77;;;10.30;;
4595;SDS011;2310;49.978;8.742;2023-02-28T18:55:19;15.80;;;10.50;;
4595;SDS011;2310;49.978;8.742;2023-02-28T18:59:21;14.10;;;10.27;;
4595;SDS011;2310;49.978;8.742;2023-02-28T19:03:22;13.27;;;11.60;;
4595;SDS011;2310;49.978;8.742;2023-02-28T19:07:23;13.33;;;10.27;;
4595;SDS011;2310;49.978;8.742;2023-02-28T19:11:25;13.50;;;9.57;;
4595;SDS011;2310;49.978;8.742;2023-02-28T19:15:26;13.80;;;10.23;;
4595;SDS011;2310;49.978;8.742;2023-02-28T19:19:27;12.87;;;9.97;;
4595;SDS011;2310;49.978;8.742;2023-02-28T19:23:30;13.27;;;10.67;;
4595;SDS011;2310;49.978;8.742;2023-02-28T19:27:31;12.60;;;10.10;;
4595;SDS011;2310;49.978;8.742;2023-02-28T19:31:33;16.23;;;11.17;;
4595;SDS011;2310;49.978;8.742;2023-02-28T19:35:35;14.03;;;11.70;;
4595;SDS011;2310;49.978;8.742;2023-02-28T19:39:36;17.07;;;12.37;;
4595;SDS011;2310;49.978;8.742;2023-02-28T19:43:39;15.03;;;11.90;;
4595;SDS011;2310;49.978;8.742;2023-02-28T19:47:41;17.47;;;12.13;;
4595;SDS011;2310;49.978;8.742;2023-02-28T19:51:42;23.47;;;12.40;;
4595;SDS011;2310;49.978;8.742;2023-02-28T19:55:45;13.10;;;10.77;;
4595;SDS011;2310;49.978;8.742;2023-02-28T19:59:47;12.87;;;11.03;;
4595;SDS011;2310;49.978;8.742;2023-02-28T20:03:50;13.33;;;11.43;;
4595;SDS011;2310;49.978;8.742;2023-02-28T20:07:52;13.57;;;10.27;;
4595;SDS011;2310;49.978;8.742;2023-02-28T20:11:54;15.07;;;11.57;;
4595;SDS011;2310;49.978;8.742;2023-02-28T20:15:58;13.07;;;10.70;;
4595;SDS011;2310;49.978;8.742;2023-02-28T20:20:01;13.57;;;11.00;;
4595;SDS011;2310;49.978;8.742;2023-02-28T20:24:03;16.40;;;11.90;;
4595;SDS011;2310;49.978;8.742;2023-02-28T20:28:04;14.13;;;11.90;;
4595;SDS011;2310;49.978;8.742;2023-02-28T20:32:06;15.47;;;12.77;;
4595;SDS011;2310;49.978;8.742;2023-02-28T20:36:08;17.80;;;12.80;;
4595;SDS011;2310;49.978;8.742;2023-02-28T20:40:11;23.70;;;13.37;;
4595;SDS011;2310;49.978;8.742;2023-02-28T20:44:13;14.70;;;11.93;;
4595;SDS011;2310;49.978;8.742;2023-02-28T20:48:14;15.80;;;12.93;;
4595;SDS011;2310;49.978;8.742;2023-02-28T20:52:15;17.13;;;12.30;;
4595;SDS011;2310;49.978;8.742;2023-02-28T20:56:18;15.10;;;12.93;;
4595;SDS011;2310;49.978;8.742;2023-02-28T21:00:20;15.30;;;12.10;;
4595;SDS011;2310;49.978;8.742;2023-02-28T21:04:22;15.77;;;13.00;;
4595;SDS011;2310;49.978;8.742;2023-02-28T21:08:23;16.20;;;13.23;;
4595;SDS011;2310;49.978;8.742;2023-02-28T21:12:25;19.80;;;15.00;;
4595;SDS011;2310;49.978;8.742;2023-02-28T21:16:27;20.20;;;14.63;;
4595;SDS011;2310;49.978;8.742;2023-02-28T21:20:29;19.30;;;14.90;;
4595;SDS011;2310;49.978;8.742;2023-02-28T21:24:31;22.67;;;17.43;;
4595;SDS011;2310;49.978;8.742;2023-02-28T21:28:32;23.50;;;15.50;;
4595;SDS011;2310;49.978;8.742;2023-02-28T21:32:35;20.80;;;16.20;;
4595;SDS011;2310;49.978;8.742;2023-02-28T21:36:37;18.50;;;13.83;;
4595;SDS011;2310;49.978;8.742;2023-02-28T21:40:40;23.90;;;17.90;;
4595;SDS011;2310;49.978;8.742;2023-02-28T21:44:41;22.20;;;16.83;;
4595;SDS011;2310;49.978;8.742;2023-02-28T21:48:43;22.80;;;18.10;;
4595;SDS011;2310;49.978;8.742;2023-02-28T21:52:45;18.70;;;16.33;;
4595;SDS011;2310;49.978;8.742;2023-02-28T21:56:46;18.37;;;15.43;;
4595;SDS011;2310;49.978;8.742;2023-02-28T22:00:50;18.90;;;14.83;;
4595;SDS011;2310;49.978;8.742;2023-02-28T22:04:51;16.60;;;14.07;;
4595;SDS011;2310;49.978;8.742;2023-02-28T22:08:54;14.13;;;12.17;;
4595;SDS011;2310;49.978;8.742;2023-02-28T22:12:57;15.83;;;11.57;;
4595;SDS011;2310;49.978;8.742;2023-02-28T22:17:00;17.33;;;12.60;;
4595;SDS011;2310;49.978;8.742;2023-02-28T22:21:01;16.63;;;12.80;;
4595;SDS011;2310;49.978;8.742;2023-02-28T22:25:04;18.13;;;13.23;;
4595;SDS011;2310;49.978;8.742;2023-02-28T22:29:06;20.03;;;13.60;;
4595;SDS011;2310;49.978;8.742;2023-02-28T22:33:07;20.20;;;15.63;;
4595;SDS011;2310;49.978;8.742;2023-02-28T22:37:08;17.77;;;13.17;;
4595;SDS011;2310;49.978;8.742;2023-02-28T22:41:10;16.87;;;12.50;;
4595;SDS011;2310;49.978;8.742;2023-02-28T22:45:12;16.73;;;13.60;;
4595;SDS011;2310;49.978;8.742;2023-02-28T22:49:14;18.10;;;13.67;;
4595;SDS011;2310;49.978;8.742;2023-02-28T22:53:15;16.27;;;12.30;;
4595;SDS011;2310;49.978;8.742;2023-02-28T22:57:17;17.73;;;13.83;;
4595;SDS011;2310;49.978;8.742;2023-02-28T23:01:19;18.67;;;13.17;;
4595;SDS011;2310;49.978;8.742;2023-02-28T23:05:22;19.33;;;13.10;;
4595;SDS011;2310;49.978;8.742;2023-02-28T23:09:23;15.80;;;12.97;;
4595;SDS011;2310;49.978;8.742;2023-02-28T23:13:24;18.40;;;13.70;;
4595;SDS011;2310;49.978;8.742;2023-02-28T23:17:26;16.60;;;13.77;;
4595;SDS011;2310;49.978;8.742;2023-02-28T23:21:27;18.13;;;13.20;;
4595;SDS011;2310;49.978;8.742;2023-02-28T23:25:29;18.67;;;13.43;;
4595;SDS011;2310;49.978;8.742;2023-02-28T23:29:31;16.80;;;13.70;;
4595;SDS011;2310;49.978;8.742;2023-02-28T23:33:34;17.03;;;12.23;;
4595;SDS011;2310;49.978;8.742;2023-02-28T23:37:36;16.73;;;13.77;;
4595;SDS011;2310;49.978;8.742;2023-02-28T23:41:39;16.33;;;12.37;;
4595;SDS011;2310;49.978;8.742;2023-02-28T23:45:40;17.83;;;13.90;;
4595;SDS011;2310;49.978;8.742;2023-02-28T23:49:43;20.30;;;14.07;;
4595;SDS011;2310;49.978;8.742;2023-02-28T23:53:45;16.50;;;12.20;;
4595;SDS011;2310;49.978;8.742;2023-02-28T23:57:48;16.83;;;12.47;;
